Time;durP1;ratioP1;P1;durP2;ratioP2;P2;SDS_P1;SDS_P2;PMS_P1;PMS_P2;Temp;Humidity;BMP_temperature;BMP_pressure;BME280_temperature;BME280_humidity;BME280_pressure;Samples;Min_cycle;Max_cycle;Signal;HPM_P1;HPM_P2
2021/10/20 00:01:16;;;;;;;12.45;4.25;;;;;;;;;;5032388;28;20030;-55
2021/10/20 00:03:42;;;;;;;9.98;4.72;;;;;;;;;;5031965;28;20079;-55
2021/10/20 00:06:08;;;;;;;10.77;4.68;;;;;;;;;;5032483;28;20371;-55
2021/10/20 00:08:34;;;;;;;12.95;5.18;;;;;;;;;;5036828;28;20033;-54
2021/10/20 00:11:00;;;;;;;8.18;4.47;;;;;;;;;;5036818;28;20029;-55
2021/10/20 00:13:26;;;;;;;8.65;4.97;;;;;;;;;;5036425;28;20056;-55
2021/10/20 00:15:53;;;;;;;7.18;4.10;;;;;;;;;;5035832;28;20049;-55
2021/10/20 00:18:20;;;;;;;7.78;4.03;;;;;;;;;;5036371;28;20045;-55
2021/10/20 00:20:46;;;;;;;11.75;4.80;;;;;;;;;;5036258;28;20132;-55
2021/10/20 00:23:13;;;;;;;7.93;4.25;;;;;;;;;;5036535;28;20087;-55
2021/10/20 00:25:39;;;;;;;12.25;5.22;;;;;;;;;;5036090;28;20026;-55
2021/10/20 00:28:06;;;;;;;7.75;4.10;;;;;;;;;;5036398;28;20064;-55
2021/10/20 00:30:32;;;;;;;8.32;4.07;;;;;;;;;;5034466;28;20083;-54
2021/10/20 00:32:58;;;;;;;6.18;3.60;;;;;;;;;;5036122;28;20340;-55
2021/10/20 00:35:24;;;;;;;10.80;5.30;;;;;;;;;;5035932;28;20100;-54
2021/10/20 00:37:50;;;;;;;9.45;4.70;;;;;;;;;;5035846;28;20029;-55
2021/10/20 00:40:16;;;;;;;8.85;4.43;;;;;;;;;;5036185;28;20033;-55
2021/10/20 00:42:43;;;;;;;5.82;3.63;;;;;;;;;;5035860;28;20041;-55
2021/10/20 00:45:10;;;;;;;9.07;4.53;;;;;;;;;;5035511;28;20025;-55
2021/10/20 00:47:36;;;;;;;8.27;4.45;;;;;;;;;;5035813;28;20044;-56
2021/10/20 00:50:03;;;;;;;14.45;4.05;;;;;;;;;;5035830;28;20072;-55
2021/10/20 00:52:29;;;;;;;7.32;3.97;;;;;;;;;;5034552;28;20029;-55
2021/10/20 00:54:56;;;;;;;9.80;4.60;;;;;;;;;;5034823;28;20032;-55
2021/10/20 00:57:23;;;;;;;9.30;3.97;;;;;;;;;;5034463;28;20029;-54
2021/10/20 00:59:50;;;;;;;8.48;4.13;;;;;;;;;;5035669;28;20055;-55
2021/10/20 01:02:16;;;;;;;9.43;4.50;;;;;;;;;;5035350;28;20037;-55
2021/10/20 01:04:42;;;;;;;8.43;4.28;;;;;;;;;;5034937;28;20022;-55
2021/10/20 01:07:09;;;;;;;9.80;4.22;;;;;;;;;;5035707;28;20026;-55
2021/10/20 01:09:35;;;;;;;12.00;4.45;;;;;;;;;;5034326;28;20018;-55
2021/10/20 01:12:01;;;;;;;6.30;4.18;;;;;;;;;;5035312;28;20029;-54
2021/10/20 01:14:31;;;;;;;6.85;3.90;;;;;;;;;;5034918;28;20040;-54
2021/10/20 01:16:57;;;;;;;7.95;4.55;;;;;;;;;;5035425;28;20026;-55
2021/10/20 01:19:24;;;;;;;7.95;4.10;;;;;;;;;;5034405;28;20056;-54
2021/10/20 01:21:51;;;;;;;9.57;3.80;;;;;;;;;;5035090;28;20044;-55
2021/10/20 01:24:18;;;;;;;7.47;3.85;;;;;;;;;;5034776;28;20030;-55
2021/10/20 01:26:44;;;;;;;9.98;4.25;;;;;;;;;;5035003;28;20358;-55
2021/10/20 01:29:11;;;;;;;8.20;3.92;;;;;;;;;;5034336;28;20101;-55
2021/10/20 01:31:37;;;;;;;9.73;4.15;;;;;;;;;;5034526;28;20532;-55
2021/10/20 01:34:03;;;;;;;6.70;3.25;;;;;;;;;;5034343;28;20096;-55
2021/10/20 01:36:29;;;;;;;10.02;4.10;;;;;;;;;;5033860;28;20021;-55
2021/10/20 01:38:55;;;;;;;6.57;3.60;;;;;;;;;;5034723;28;20343;-55
2021/10/20 01:41:21;;;;;;;13.27;4.18;;;;;;;;;;5034812;28;20056;-55
2021/10/20 01:43:48;;;;;;;6.03;3.47;;;;;;;;;;5034420;28;20124;-55
2021/10/20 01:46:15;;;;;;;5.90;3.08;;;;;;;;;;5034585;28;20460;-55
2021/10/20 01:48:41;;;;;;;8.57;3.80;;;;;;;;;;5034959;28;20060;-55
2021/10/20 01:51:07;;;;;;;6.72;3.17;;;;;;;;;;5034859;28;20064;-55
2021/10/20 01:53:33;;;;;;;11.43;4.05;;;;;;;;;;5034032;28;20854;-55
2021/10/20 01:55:59;;;;;;;7.25;3.55;;;;;;;;;;5034562;28;20025;-55
2021/10/20 01:58:25;;;;;;;12.02;4.55;;;;;;;;;;5034705;28;20029;-55
2021/10/20 02:00:51;;;;;;;5.38;3.20;;;;;;;;;;5034803;28;20462;-55
2021/10/20 02:03:17;;;;;;;6.82;3.33;;;;;;;;;;5034208;28;20037;-55
2021/10/20 02:05:43;;;;;;;10.07;3.97;;;;;;;;;;5033927;28;20032;-55
2021/10/20 02:08:09;;;;;;;7.07;3.33;;;;;;;;;;5033937;28;20447;-54
2021/10/20 02:10:35;;;;;;;6.75;3.47;;;;;;;;;;5034427;28;20026;-55
2021/10/20 02:13:01;;;;;;;6.38;3.45;;;;;;;;;;5033039;28;20022;-55
2021/10/20 02:15:27;;;;;;;6.68;3.45;;;;;;;;;;5033711;28;20034;-55
2021/10/20 02:17:53;;;;;;;7.28;2.75;;;;;;;;;;5032368;28;20117;-55
2021/10/20 02:20:19;;;;;;;4.75;2.63;;;;;;;;;;5034275;28;20440;-55
2021/10/20 02:22:45;;;;;;;4.80;2.85;;;;;;;;;;5033909;28;20125;-55
2021/10/20 02:25:12;;;;;;;8.95;3.42;;;;;;;;;;5033878;28;20022;-55
2021/10/20 02:27:38;;;;;;;9.70;3.58;;;;;;;;;;5034092;28;20029;-55
2021/10/20 02:30:05;;;;;;;7.57;2.95;;;;;;;;;;5032384;28;20036;-55
2021/10/20 02:32:31;;;;;;;5.35;2.85;;;;;;;;;;5033532;28;20040;-55
2021/10/20 02:34:57;;;;;;;7.43;3.72;;;;;;;;;;5032989;28;20474;-55
2021/10/20 02:37:23;;;;;;;8.27;3.47;;;;;;;;;;5034385;28;20112;-55
2021/10/20 02:39:49;;;;;;;10.32;3.63;;;;;;;;;;5033647;28;20032;-55
2021/10/20 02:42:15;;;;;;;6.38;3.40;;;;;;;;;;5033646;28;20033;-55
2021/10/20 02:44:41;;;;;;;7.05;3.55;;;;;;;;;;5032899;28;20032;-55
2021/10/20 02:47:07;;;;;;;6.90;3.97;;;;;;;;;;5033454;28;20036;-55
2021/10/20 02:49:33;;;;;;;6.05;3.35;;;;;;;;;;5033491;28;20359;-55
2021/10/20 02:51:59;;;;;;;6.72;3.58;;;;;;;;;;5033655;28;20021;-55
2021/10/20 02:54:25;;;;;;;9.02;3.65;;;;;;;;;;5033098;28;20502;-55
2021/10/20 02:56:51;;;;;;;9.07;3.50;;;;;;;;;;5042405;28;20031;-55
2021/10/20 02:59:17;;;;;;;6.38;3.67;;;;;;;;;;5052857;28;20362;-54
2021/10/20 03:01:43;;;;;;;7.03;3.70;;;;;;;;;;5051783;28;20053;-55
2021/10/20 03:04:09;;;;;;;10.52;3.60;;;;;;;;;;5052332;28;20094;-55
2021/10/20 03:06:35;;;;;;;6.95;4.40;;;;;;;;;;5051952;28;20366;-55
2021/10/20 03:09:01;;;;;;;6.57;4.05;;;;;;;;;;5053493;28;20075;-55
2021/10/20 03:11:27;;;;;;;7.88;4.18;;;;;;;;;;5053011;28;20021;-55
2021/10/20 03:13:54;;;;;;;12.88;3.83;;;;;;;;;;5050925;28;20036;-55
2021/10/20 03:16:20;;;;;;;7.00;3.72;;;;;;;;;;5052861;28;20067;-56
2021/10/20 03:18:46;;;;;;;7.18;4.30;;;;;;;;;;5051902;28;20404;-55
2021/10/20 03:21:12;;;;;;;5.53;3.72;;;;;;;;;;5053099;28;20275;-55
2021/10/20 03:23:38;;;;;;;7.88;3.50;;;;;;;;;;5052522;28;20078;-55
2021/10/20 03:26:04;;;;;;;7.75;4.38;;;;;;;;;;5052585;28;20071;-55
2021/10/20 03:28:30;;;;;;;9.10;4.15;;;;;;;;;;5050566;28;20056;-55
2021/10/20 03:30:56;;;;;;;10.52;4.75;;;;;;;;;;5033794;28;20421;-55
2021/10/20 03:33:22;;;;;;;6.85;4.15;;;;;;;;;;5032725;28;20126;-55
2021/10/20 03:35:48;;;;;;;8.10;3.53;;;;;;;;;;5030970;28;20044;-56
2021/10/20 03:38:15;;;;;;;6.82;4.13;;;;;;;;;;5032955;28;20440;-55
2021/10/20 03:40:41;;;;;;;5.63;3.63;;;;;;;;;;5032959;28;20436;-55
2021/10/20 03:43:07;;;;;;;11.38;3.95;;;;;;;;;;5032232;28;20399;-55
2021/10/20 03:45:33;;;;;;;9.25;4.05;;;;;;;;;;5031872;28;20458;-55
2021/10/20 03:47:59;;;;;;;8.52;4.53;;;;;;;;;;5032709;28;20105;-55
2021/10/20 03:50:25;;;;;;;11.73;4.38;;;;;;;;;;5032876;28;20041;-55
2021/10/20 03:52:51;;;;;;;6.93;3.83;;;;;;;;;;5032925;28;20032;-55
2021/10/20 03:55:17;;;;;;;11.23;4.97;;;;;;;;;;5032122;28;20020;-55
2021/10/20 03:57:43;;;;;;;9.15;4.47;;;;;;;;;;5032473;28;20104;-55
2021/10/20 04:00:11;;;;;;;9.10;4.15;;;;;;;;;;5032822;28;20108;-55
2021/10/20 04:02:42;;;;;;;10.73;4.20;;;;;;;;;;5032139;28;20045;-55
2021/10/20 04:05:08;;;;;;;9.77;3.97;;;;;;;;;;5032079;28;20452;-55
2021/10/20 04:07:34;;;;;;;9.68;4.53;;;;;;;;;;5032682;28;20036;-56
2021/10/20 04:10:00;;;;;;;9.52;4.03;;;;;;;;;;5032648;28;20033;-55
2021/10/20 04:12:26;;;;;;;9.18;4.45;;;;;;;;;;5032411;28;20470;-55
2021/10/20 04:14:52;;;;;;;8.32;4.20;;;;;;;;;;5031525;28;20025;-55
2021/10/20 04:17:18;;;;;;;10.70;4.40;;;;;;;;;;5032344;28;20026;-55
2021/10/20 04:19:44;;;;;;;6.72;3.97;;;;;;;;;;5032444;28;20063;-55
2021/10/20 04:22:10;;;;;;;9.05;3.90;;;;;;;;;;5032320;28;20033;-55
2021/10/20 04:24:36;;;;;;;10.48;4.30;;;;;;;;;;5031626;28;20025;-55
2021/10/20 04:27:02;;;;;;;10.80;5.03;;;;;;;;;;5030943;28;20029;-55
2021/10/20 04:29:28;;;;;;;11.30;4.32;;;;;;;;;;5031442;28;20021;-55
2021/10/20 04:31:54;;;;;;;9.80;4.78;;;;;;;;;;5030801;28;20033;-55
2021/10/20 04:34:20;;;;;;;10.35;4.68;;;;;;;;;;5032058;28;20049;-55
2021/10/20 04:36:46;;;;;;;7.32;4.15;;;;;;;;;;5031918;28;20022;-55
2021/10/20 04:39:12;;;;;;;8.68;4.68;;;;;;;;;;5032469;28;20083;-55
2021/10/20 04:41:38;;;;;;;7.47;4.30;;;;;;;;;;5032076;28;20101;-55
2021/10/20 04:44:04;;;;;;;8.30;4.28;;;;;;;;;;5032030;28;20125;-55
2021/10/20 04:46:30;;;;;;;9.23;4.05;;;;;;;;;;5032190;28;20040;-55
2021/10/20 04:48:56;;;;;;;9.18;4.38;;;;;;;;;;5032422;28;20104;-55
2021/10/20 04:51:22;;;;;;;7.43;4.32;;;;;;;;;;5031558;28;20060;-55
2021/10/20 04:53:48;;;;;;;8.63;4.50;;;;;;;;;;5032454;28;20021;-55
2021/10/20 04:56:14;;;;;;;12.32;4.75;;;;;;;;;;5036250;28;20324;-55
2021/10/20 04:58:40;;;;;;;10.60;5.03;;;;;;;;;;5035756;28;20036;-55
2021/10/20 05:01:06;;;;;;;8.13;3.92;;;;;;;;;;5036035;28;20029;-55
2021/10/20 05:03:32;;;;;;;12.27;4.70;;;;;;;;;;5033421;28;20363;-55
2021/10/20 05:05:58;;;;;;;11.30;4.75;;;;;;;;;;5035196;28;20108;-55
2021/10/20 05:08:24;;;;;;;9.60;4.47;;;;;;;;;;5035629;28;20025;-55
2021/10/20 05:10:50;;;;;;;9.52;4.78;;;;;;;;;;5034290;28;20025;-55
2021/10/20 05:13:16;;;;;;;11.02;4.75;;;;;;;;;;5035146;28;20053;-55
2021/10/20 05:15:44;;;;;;;8.20;4.40;;;;;;;;;;5034859;28;20053;-55
2021/10/20 05:18:10;;;;;;;9.85;4.70;;;;;;;;;;5035317;28;20063;-56
2021/10/20 05:20:37;;;;;;;7.78;3.45;;;;;;;;;;5035267;28;20022;-55
2021/10/20 05:23:03;;;;;;;8.80;4.57;;;;;;;;;;5035099;28;20061;-51
2021/10/20 05:25:29;;;;;;;14.30;5.22;;;;;;;;;;5033608;28;20022;-51
2021/10/20 05:27:55;;;;;;;9.05;4.40;;;;;;;;;;5035104;28;20021;-51
2021/10/20 05:30:21;;;;;;;10.43;5.28;;;;;;;;;;5035182;28;20029;-51
2021/10/20 05:32:47;;;;;;;17.17;6.65;;;;;;;;;;5034910;28;20408;-51
2021/10/20 05:35:20;;;;;;;9.93;5.47;;;;;;;;;;5032518;28;20021;-51
2021/10/20 05:37:47;;;;;;;11.32;5.63;;;;;;;;;;5035248;28;20026;-50
2021/10/20 05:40:13;;;;;;;7.97;3.95;;;;;;;;;;5035095;28;20033;-51
2021/10/20 05:42:39;;;;;;;14.50;5.88;;;;;;;;;;5035140;28;20041;-51
2021/10/20 05:45:05;;;;;;;12.05;4.63;;;;;;;;;;5034526;28;20017;-51
2021/10/20 05:47:31;;;;;;;9.75;3.85;;;;;;;;;;5034686;28;20060;-52
2021/10/20 05:49:57;;;;;;;10.88;4.63;;;;;;;;;;5034949;28;20049;-51
2021/10/20 05:52:23;;;;;;;10.63;4.75;;;;;;;;;;5034227;28;20340;-51
2021/10/20 05:54:49;;;;;;;12.18;4.80;;;;;;;;;;5034473;28;20021;-51
2021/10/20 05:57:15;;;;;;;10.68;5.18;;;;;;;;;;5034934;28;20030;-51
2021/10/20 05:59:41;;;;;;;10.52;5.38;;;;;;;;;;5034880;28;20021;-51
2021/10/20 06:02:11;;;;;;;13.05;4.88;;;;;;;;;;5034439;28;20447;-51
2021/10/20 06:04:37;;;;;;;8.23;4.25;;;;;;;;;;5033124;28;20029;-51
2021/10/20 06:07:03;;;;;;;13.18;3.85;;;;;;;;;;5034531;28;20378;-51
2021/10/20 06:09:29;;;;;;;7.30;4.38;;;;;;;;;;5034850;28;20108;-51
2021/10/20 06:11:55;;;;;;;10.27;4.82;;;;;;;;;;5034401;28;20360;-51
2021/10/20 06:14:21;;;;;;;6.93;3.70;;;;;;;;;;5033649;28;20029;-51
2021/10/20 06:16:47;;;;;;;8.32;4.32;;;;;;;;;;5034417;28;20028;-51
2021/10/20 06:19:12;;;;;;;8.68;4.65;;;;;;;;;;5033717;28;20455;-51
2021/10/20 06:21:38;;;;;;;10.30;4.55;;;;;;;;;;5034214;28;20025;-51
2021/10/20 06:24:05;;;;;;;12.07;5.40;;;;;;;;;;5033317;28;20030;-51
2021/10/20 06:26:32;;;;;;;7.95;4.30;;;;;;;;;;5034232;28;20053;-51
2021/10/20 06:28:58;;;;;;;11.52;5.03;;;;;;;;;;5034228;28;20037;-51
2021/10/20 06:31:24;;;;;;;10.20;4.30;;;;;;;;;;5034134;28;20037;-52
2021/10/20 06:33:50;;;;;;;8.65;4.00;;;;;;;;;;5032574;28;20137;-51
2021/10/20 06:36:28;;;;;;;9.23;4.60;;;;;;;;;;5034475;28;20100;-51
2021/10/20 06:38:54;;;;;;;11.90;5.70;;;;;;;;;;5033886;28;20029;-51
2021/10/20 06:41:20;;;;;;;10.70;4.82;;;;;;;;;;5034249;28;20037;-51
2021/10/20 06:43:46;;;;;;;11.82;4.85;;;;;;;;;;5032760;28;20128;-51
2021/10/20 06:46:12;;;;;;;15.55;4.20;;;;;;;;;;5033764;28;20022;-51
2021/10/20 06:48:38;;;;;;;11.02;4.93;;;;;;;;;;5033903;28;20033;-51
2021/10/20 06:51:06;;;;;;;9.30;4.50;;;;;;;;;;5034026;28;20079;-51
2021/10/20 06:53:31;;;;;;;9.20;4.53;;;;;;;;;;5032475;28;20112;-51
2021/10/20 06:55:57;;;;;;;7.85;4.55;;;;;;;;;;5033986;28;20105;-52
2021/10/20 06:58:23;;;;;;;7.65;3.90;;;;;;;;;;5033634;28;20095;-51
2021/10/20 07:00:49;;;;;;;10.95;4.55;;;;;;;;;;5033867;28;20625;-51
2021/10/20 07:03:16;;;;;;;7.50;4.55;;;;;;;;;;5032964;28;20029;-51
2021/10/20 07:05:42;;;;;;;10.93;4.25;;;;;;;;;;5032858;28;20108;-51
2021/10/20 07:08:08;;;;;;;14.05;5.80;;;;;;;;;;5033811;28;20131;-51
2021/10/20 07:10:36;;;;;;;13.90;5.20;;;;;;;;;;5033195;28;20059;-52
2021/10/20 07:13:02;;;;;;;8.90;5.13;;;;;;;;;;5032940;28;20479;-51
2021/10/20 07:15:28;;;;;;;10.55;4.07;;;;;;;;;;5032206;28;20021;-51
2021/10/20 07:17:54;;;;;;;9.63;4.55;;;;;;;;;;5032985;28;20508;-51
2021/10/20 07:20:20;;;;;;;14.07;5.72;;;;;;;;;;5033234;28;20029;-51
2021/10/20 07:22:46;;;;;;;7.78;4.32;;;;;;;;;;5033175;28;20120;-51
2021/10/20 07:25:13;;;;;;;17.00;5.90;;;;;;;;;;5032084;28;20462;-51
2021/10/20 07:27:40;;;;;;;9.70;4.53;;;;;;;;;;5033446;28;20033;-52
2021/10/20 07:30:07;;;;;;;11.25;5.53;;;;;;;;;;5032626;28;20045;-51
2021/10/20 07:32:33;;;;;;;12.48;4.70;;;;;;;;;;5033155;28;20080;-51
2021/10/20 07:34:59;;;;;;;8.45;3.38;;;;;;;;;;5031907;28;20435;-51
2021/10/20 07:37:25;;;;;;;13.93;5.50;;;;;;;;;;5033204;28;20025;-51
2021/10/20 07:39:51;;;;;;;7.50;4.30;;;;;;;;;;5032886;28;20056;-51
2021/10/20 07:42:17;;;;;;;7.90;4.78;;;;;;;;;;5032679;28;20060;-51
2021/10/20 07:44:44;;;;;;;10.75;5.82;;;;;;;;;;5031785;28;20455;-52
2021/10/20 07:47:10;;;;;;;17.15;6.10;;;;;;;;;;5033086;28;20079;-51
2021/10/20 07:49:36;;;;;;;11.50;5.60;;;;;;;;;;5032824;28;20025;-51
2021/10/20 07:52:03;;;;;;;9.00;5.03;;;;;;;;;;5032695;28;20030;-51
2021/10/20 07:54:29;;;;;;;11.27;5.10;;;;;;;;;;5031941;28;20100;-51
2021/10/20 07:56:55;;;;;;;9.98;5.18;;;;;;;;;;5032549;28;20473;-51
2021/10/20 07:59:21;;;;;;;12.13;5.90;;;;;;;;;;5032879;28;20193;-51
2021/10/20 08:01:48;;;;;;;8.68;4.72;;;;;;;;;;5032834;28;20021;-51
2021/10/20 08:04:14;;;;;;;11.25;5.10;;;;;;;;;;5031870;28;20045;-51
2021/10/20 08:06:40;;;;;;;13.73;6.35;;;;;;;;;;5032663;28;20029;-51
2021/10/20 08:09:06;;;;;;;9.10;5.45;;;;;;;;;;5032945;28;20025;-51
2021/10/20 08:11:32;;;;;;;9.68;5.15;;;;;;;;;;5032299;28;20068;-51
2021/10/20 08:13:58;;;;;;;11.02;5.80;;;;;;;;;;5031760;28;20040;-51
2021/10/20 08:16:24;;;;;;;10.30;5.38;;;;;;;;;;5032913;28;20112;-51
2021/10/20 08:18:50;;;;;;;15.00;5.38;;;;;;;;;;5032648;28;20040;-51
2021/10/20 08:21:16;;;;;;;10.23;4.40;;;;;;;;;;5032616;28;20022;-51
2021/10/20 08:23:42;;;;;;;9.95;5.45;;;;;;;;;;5031596;28;20030;-51
2021/10/20 08:26:08;;;;;;;14.13;5.70;;;;;;;;;;5032101;28;20033;-52
2021/10/20 08:28:35;;;;;;;13.80;5.45;;;;;;;;;;5034665;28;20033;-52
2021/10/20 08:31:01;;;;;;;7.60;5.03;;;;;;;;;;5036061;28;20451;-51
2021/10/20 08:33:27;;;;;;;13.43;6.22;;;;;;;;;;5035694;28;20022;-51
2021/10/20 08:35:53;;;;;;;23.65;6.07;;;;;;;;;;5036083;28;20018;-51
2021/10/20 08:38:19;;;;;;;12.02;4.78;;;;;;;;;;5036121;28;20021;-52
2021/10/20 08:40:46;;;;;;;14.05;5.35;;;;;;;;;;5035863;28;20044;-52
2021/10/20 08:43:13;;;;;;;13.27;6.30;;;;;;;;;;5036325;28;20037;-51
2021/10/20 08:45:39;;;;;;;10.13;5.30;;;;;;;;;;5035294;28;20283;-51
2021/10/20 08:48:05;;;;;;;8.27;3.90;;;;;;;;;;5036420;28;20071;-51
2021/10/20 08:50:32;;;;;;;4.75;3.00;;;;;;;;;;5035522;28;20459;-51
2021/10/20 08:52:58;;;;;;;6.15;3.60;;;;;;;;;;5036449;28;20025;-51
2021/10/20 08:55:25;;;;;;;5.03;3.20;;;;;;;;;;5034835;28;20025;-51
2021/10/20 08:57:51;;;;;;;8.73;4.65;;;;;;;;;;5036132;28;20037;-51
2021/10/20 09:00:18;;;;;;;9.93;4.95;;;;;;;;;;5036012;28;20018;-51
2021/10/20 09:02:47;;;;;;;10.43;4.25;;;;;;;;;;5035478;28;20055;-51
2021/10/20 09:05:14;;;;;;;10.18;4.78;;;;;;;;;;5034880;28;20521;-51
2021/10/20 09:07:40;;;;;;;15.80;4.75;;;;;;;;;;5036299;28;20456;-51
2021/10/20 09:10:07;;;;;;;8.77;4.07;;;;;;;;;;5035157;28;20468;-51
2021/10/20 09:12:37;;;;;;;8.98;5.13;;;;;;;;;;5035868;28;20026;-51
2021/10/20 09:15:07;;;;;;;11.50;4.93;;;;;;;;;;5034645;28;20030;-51
2021/10/20 09:17:46;;;;;;;14.50;5.50;;;;;;;;;;5035953;28;20032;-51
2021/10/20 09:20:19;;;;;;;11.05;4.65;;;;;;;;;;5035219;28;20067;-51
2021/10/20 09:22:56;;;;;;;12.32;4.13;;;;;;;;;;5035516;28;20041;-51
2021/10/20 09:25:22;;;;;;;7.97;4.97;;;;;;;;;;5034928;28;20108;-51
2021/10/20 09:27:48;;;;;;;7.90;4.45;;;;;;;;;;5035532;28;20025;-53
2021/10/20 09:30:16;;;;;;;8.43;4.82;;;;;;;;;;5034952;28;20355;-51
2021/10/20 09:32:42;;;;;;;11.77;4.20;;;;;;;;;;5035124;28;20451;-51
2021/10/20 09:35:13;;;;;;;10.32;4.10;;;;;;;;;;5034334;28;20037;-51
2021/10/20 09:37:39;;;;;;;5.75;3.80;;;;;;;;;;5035417;28;20029;-51
2021/10/20 09:40:07;;;;;;;10.18;4.95;;;;;;;;;;5034171;28;20029;-51
2021/10/20 09:42:43;;;;;;;6.50;4.05;;;;;;;;;;5034966;28;20067;-51
2021/10/20 09:45:10;;;;;;;20.38;4.50;;;;;;;;;;5034131;28;20487;-51
2021/10/20 09:47:38;;;;;;;8.95;4.13;;;;;;;;;;5034965;28;20456;-51
2021/10/20 09:50:06;;;;;;;9.88;3.55;;;;;;;;;;5034997;28;20036;-51
2021/10/20 09:52:43;;;;;;;9.23;4.20;;;;;;;;;;5034448;28;20510;-51
2021/10/20 09:55:12;;;;;;;7.28;3.55;;;;;;;;;;5034133;28;20029;-51
2021/10/20 09:57:38;;;;;;;8.75;3.45;;;;;;;;;;5034560;28;20451;-51
2021/10/20 10:00:05;;;;;;;8.10;4.38;;;;;;;;;;5034627;28;20025;-51
2021/10/20 10:02:31;;;;;;;7.50;2.95;;;;;;;;;;5034724;28;20183;-51
2021/10/20 10:04:57;;;;;;;8.32;3.75;;;;;;;;;;5033690;28;20029;-52
2021/10/20 10:07:23;;;;;;;7.88;3.45;;;;;;;;;;5034476;28;20028;-51
2021/10/20 10:09:49;;;;;;;4.53;2.67;;;;;;;;;;5034850;28;20025;-51
2021/10/20 10:12:18;;;;;;;6.63;2.83;;;;;;;;;;5034354;28;20022;-51
2021/10/20 10:14:55;;;;;;;8.05;3.10;;;;;;;;;;5033401;28;20025;-51
2021/10/20 10:17:22;;;;;;;6.63;3.33;;;;;;;;;;5035003;28;20029;-51
2021/10/20 10:19:48;;;;;;;6.00;3.47;;;;;;;;;;5034709;28;20362;-51
2021/10/20 10:22:21;;;;;;;9.38;3.53;;;;;;;;;;5034264;28;20120;-51
2021/10/20 10:24:48;;;;;;;6.35;3.53;;;;;;;;;;5033155;28;20022;-51
2021/10/20 10:27:14;;;;;;;4.97;3.22;;;;;;;;;;5034304;28;20040;-52
2021/10/20 10:29:47;;;;;;;6.53;3.70;;;;;;;;;;5033683;28;20517;-52
2021/10/20 10:32:13;;;;;;;9.35;3.78;;;;;;;;;;5034150;28;20075;-51
2021/10/20 10:34:45;;;;;;;7.72;3.20;;;;;;;;;;5032984;28;20026;-51
2021/10/20 10:37:21;;;;;;;4.43;2.63;;;;;;;;;;5033891;28;20404;-51
2021/10/20 10:39:51;;;;;;;5.78;3.55;;;;;;;;;;5034222;28;20112;-51
2021/10/20 10:42:17;;;;;;;7.45;3.40;;;;;;;;;;5033926;28;20037;-52
2021/10/20 10:44:50;;;;;;;8.65;3.30;;;;;;;;;;5033131;28;20025;-51
2021/10/20 10:47:19;;;;;;;7.75;3.63;;;;;;;;;;5033891;28;20025;-51
2021/10/20 10:49:46;;;;;;;6.40;3.40;;;;;;;;;;5033730;28;20477;-52
2021/10/20 10:52:33;;;;;;;7.25;3.80;;;;;;;;;;5032531;28;20108;-52
2021/10/20 10:55:00;;;;;;;5.55;3.25;;;;;;;;;;5033311;28;20112;-51
2021/10/20 10:57:37;;;;;;;6.15;2.83;;;;;;;;;;5033959;28;20072;-51
2021/10/20 11:00:10;;;;;;;9.82;2.92;;;;;;;;;;5033444;28;20414;-51
2021/10/20 11:02:49;;;;;;;4.78;2.83;;;;;;;;;;5033381;28;20037;-51
2021/10/20 11:05:17;;;;;;;5.55;2.47;;;;;;;;;;5033013;28;20049;-51
2021/10/20 11:07:44;;;;;;;4.03;2.78;;;;;;;;;;5033394;28;20448;-51
2021/10/20 11:10:11;;;;;;;6.20;2.70;;;;;;;;;;5033588;28;20076;-51
2021/10/20 11:12:38;;;;;;;6.07;3.20;;;;;;;;;;5033411;28;20021;-51
2021/10/20 11:15:05;;;;;;;5.30;2.95;;;;;;;;;;5032584;28;20030;-51
2021/10/20 11:17:32;;;;;;;5.15;2.33;;;;;;;;;;5033426;28;20033;-52
2021/10/20 11:19:58;;;;;;;5.03;2.28;;;;;;;;;;5033622;28;20029;-51
2021/10/20 11:22:25;;;;;;;5.45;2.58;;;;;;;;;;5033230;28;20037;-52
2021/10/20 11:24:52;;;;;;;4.93;2.60;;;;;;;;;;5032538;28;20079;-51
2021/10/20 11:27:21;;;;;;;4.53;2.35;;;;;;;;;;5032922;28;20029;-51
2021/10/20 11:29:48;;;;;;;4.00;1.83;;;;;;;;;;5032782;28;20033;-51
2021/10/20 11:32:15;;;;;;;6.97;2.70;;;;;;;;;;5032683;28;20352;-51
2021/10/20 11:34:43;;;;;;;5.72;2.30;;;;;;;;;;5030873;28;20021;-52
2021/10/20 11:37:10;;;;;;;6.88;2.65;;;;;;;;;;5032768;28;20454;-52
2021/10/20 11:39:38;;;;;;;3.13;2.10;;;;;;;;;;5033185;28;20411;-51
2021/10/20 11:42:09;;;;;;;4.13;2.22;;;;;;;;;;5032868;28;20068;-51
2021/10/20 11:44:36;;;;;;;2.55;1.33;;;;;;;;;;5031721;28;20112;-51
2021/10/20 11:47:04;;;;;;;2.95;2.17;;;;;;;;;;5032752;28;20029;-51
2021/10/20 11:49:30;;;;;;;10.25;2.72;;;;;;;;;;5032895;28;20419;-51
2021/10/20 11:51:56;;;;;;;6.35;2.53;;;;;;;;;;5032799;28;20105;-51
2021/10/20 11:54:28;;;;;;;3.72;2.55;;;;;;;;;;5031887;28;20025;-51
2021/10/20 11:56:54;;;;;;;4.75;2.58;;;;;;;;;;5032640;28;20463;-51
2021/10/20 11:59:21;;;;;;;10.63;3.08;;;;;;;;;;5032796;28;20084;-51
2021/10/20 12:01:48;;;;;;;4.18;2.75;;;;;;;;;;5032627;28;20025;-51
2021/10/20 12:04:14;;;;;;;10.38;2.22;;;;;;;;;;5035428;28;20029;-51
2021/10/20 12:06:40;;;;;;;6.15;2.53;;;;;;;;;;5036959;28;20079;-51
2021/10/20 12:09:09;;;;;;;2.70;2.15;;;;;;;;;;5036733;28;20033;-51
2021/10/20 12:11:35;;;;;;;3.65;2.00;;;;;;;;;;5036726;28;20033;-51
2021/10/20 12:14:08;;;;;;;4.63;2.67;;;;;;;;;;5035990;28;20029;-51
2021/10/20 12:16:34;;;;;;;4.60;2.47;;;;;;;;;;5036864;28;20363;-51
2021/10/20 12:19:02;;;;;;;8.10;3.03;;;;;;;;;;5036284;28;20033;-51
2021/10/20 12:21:29;;;;;;;4.80;2.47;;;;;;;;;;5036449;28;20477;-52
2021/10/20 12:24:02;;;;;;;9.00;2.67;;;;;;;;;;5035746;28;20363;-51
2021/10/20 12:26:28;;;;;;;3.95;2.30;;;;;;;;;;5036822;28;20115;-51
2021/10/20 12:28:55;;;;;;;5.10;2.90;;;;;;;;;;5036115;28;20464;-51
2021/10/20 12:31:24;;;;;;;4.63;2.70;;;;;;;;;;5036135;28;20033;-51
2021/10/20 12:33:51;;;;;;;6.05;2.15;;;;;;;;;;5035679;28;20033;-51
2021/10/20 12:36:18;;;;;;;5.13;2.30;;;;;;;;;;5036103;28;20459;-51
2021/10/20 12:38:46;;;;;;;3.92;2.47;;;;;;;;;;5036119;28;20045;-51
2021/10/20 12:41:15;;;;;;;3.17;2.05;;;;;;;;;;5036271;28;20384;-51
2021/10/20 12:43:44;;;;;;;3.67;2.65;;;;;;;;;;5035579;28;20139;-52
2021/10/20 12:46:12;;;;;;;3.35;1.73;;;;;;;;;;5036359;28;20057;-52
2021/10/20 12:48:38;;;;;;;5.47;2.55;;;;;;;;;;5036055;28;20022;-51
2021/10/20 12:51:11;;;;;;;4.45;2.92;;;;;;;;;;5035495;28;20033;-51
2021/10/20 12:53:42;;;;;;;4.47;2.63;;;;;;;;;;5035205;28;20013;-51
2021/10/20 12:56:09;;;;;;;6.50;2.15;;;;;;;;;;5036363;28;20132;-51
2021/10/20 12:58:35;;;;;;;3.97;2.17;;;;;;;;;;5035852;28;20035;-51
2021/10/20 13:01:01;;;;;;;5.85;2.78;;;;;;;;;;5036141;28;20038;-51
2021/10/20 13:03:29;;;;;;;4.10;2.08;;;;;;;;;;5034481;28;20036;-51
2021/10/20 13:05:55;;;;;;;4.18;2.50;;;;;;;;;;5035443;28;20094;-51
2021/10/20 13:08:21;;;;;;;12.32;2.75;;;;;;;;;;5035817;28;20029;-51
2021/10/20 13:10:48;;;;;;;6.25;2.75;;;;;;;;;;5035489;28;20022;-52
2021/10/20 13:13:14;;;;;;;8.02;2.65;;;;;;;;;;5035791;28;20358;-51
2021/10/20 13:15:40;;;;;;;6.65;2.65;;;;;;;;;;5034062;28;20352;-51
2021/10/20 13:18:06;;;;;;;3.50;2.10;;;;;;;;;;5034965;28;20056;-51
2021/10/20 13:20:32;;;;;;;3.55;2.58;;;;;;;;;;5035681;28;20053;-51
2021/10/20 13:23:01;;;;;;;3.20;2.40;;;;;;;;;;5035034;28;20179;-51
2021/10/20 13:25:27;;;;;;;4.35;2.47;;;;;;;;;;5034854;28;20325;-51
2021/10/20 13:27:53;;;;;;;3.47;2.20;;;;;;;;;;5035512;28;20417;-51
2021/10/20 13:30:21;;;;;;;3.30;2.80;;;;;;;;;;5035097;28;20451;-51
2021/10/20 13:32:47;;;;;;;4.45;2.63;;;;;;;;;;5034817;28;20034;-51
2021/10/20 13:35:13;;;;;;;4.78;2.30;;;;;;;;;;5034513;28;20030;-51
2021/10/20 13:37:39;;;;;;;5.78;2.20;;;;;;;;;;5035262;28;20068;-52
2021/10/20 13:40:05;;;;;;;4.13;1.88;;;;;;;;;;5035199;28;20109;-51
2021/10/20 13:42:32;;;;;;;6.95;2.42;;;;;;;;;;5034901;28;20042;-51
2021/10/20 13:45:02;;;;;;;5.97;3.15;;;;;;;;;;5034603;28;20022;-51
2021/10/20 13:47:28;;;;;;;4.65;2.40;;;;;;;;;;5034597;28;20055;-51
2021/10/20 13:49:54;;;;;;;2.83;1.90;;;;;;;;;;5034992;28;20026;-51
2021/10/20 13:52:20;;;;;;;3.28;1.77;;;;;;;;;;5035100;28;20025;-51
2021/10/20 13:54:46;;;;;;;3.90;2.63;;;;;;;;;;5034050;28;20021;-52
2021/10/20 13:57:12;;;;;;;6.20;2.25;;;;;;;;;;5035209;28;20048;-51
2021/10/20 13:59:38;;;;;;;4.45;2.13;;;;;;;;;;5034717;28;20021;-51
2021/10/20 14:02:04;;;;;;;3.33;2.28;;;;;;;;;;5034674;28;20037;-51
2021/10/20 14:04:30;;;;;;;6.18;2.03;;;;;;;;;;5033591;28;20510;-51
2021/10/20 14:06:56;;;;;;;7.70;2.10;;;;;;;;;;5034437;28;20439;-51
2021/10/20 14:09:23;;;;;;;5.20;2.08;;;;;;;;;;5034439;28;20036;-52
2021/10/20 14:11:51;;;;;;;3.67;2.15;;;;;;;;;;5034858;28;20026;-51
2021/10/20 14:14:17;;;;;;;2.92;1.70;;;;;;;;;;5033416;28;20029;-51
2021/10/20 14:16:43;;;;;;;5.47;2.58;;;;;;;;;;5034582;28;20109;-51
2021/10/20 14:19:09;;;;;;;2.85;2.00;;;;;;;;;;5034163;28;20461;-51
2021/10/20 14:21:35;;;;;;;6.13;2.47;;;;;;;;;;5034598;28;20057;-52
2021/10/20 14:24:01;;;;;;;4.63;2.85;;;;;;;;;;5033549;28;20037;-51
2021/10/20 14:26:27;;;;;;;3.80;2.05;;;;;;;;;;5034337;28;20390;-51
2021/10/20 14:28:53;;;;;;;3.92;2.15;;;;;;;;;;5033604;28;20021;-51
2021/10/20 14:31:19;;;;;;;2.92;2.42;;;;;;;;;;5033707;28;20064;-51
2021/10/20 14:33:45;;;;;;;6.32;2.08;;;;;;;;;;5033380;28;20411;-51
2021/10/20 14:36:11;;;;;;;5.70;2.67;;;;;;;;;;5034012;28;20033;-50